createdAt,value
2022-09-03T00:00:40.077Z,20.25
2022-09-03T00:03:17.856Z,20.19
2022-09-03T00:06:10.616Z,20.20
2022-09-03T00:08:42.351Z,20.52
2022-09-03T00:11:26.251Z,20.61
2022-09-03T00:14:19.480Z,20.52
2022-09-03T00:16:57.797Z,20.52
2022-09-03T00:19:29.155Z,20.17
2022-09-03T00:22:00.396Z,19.70
2022-09-03T00:24:31.069Z,19.96
2022-09-03T00:27:03.297Z,20.44
2022-09-03T00:29:57.832Z,20.11
2022-09-03T00:33:10.127Z,20.09
2022-09-03T00:35:40.586Z,20.06
2022-09-03T00:38:08.234Z,20.14
2022-09-03T00:41:00.633Z,20.23
2022-09-03T00:43:48.202Z,19.66
2022-09-03T00:46:36.337Z,19.78
2022-09-03T00:49:28.200Z,19.23
2022-09-03T00:52:11.524Z,19.62
2022-09-03T00:54:46.918Z,19.84
2022-09-03T00:57:32.252Z,19.43
2022-09-03T01:00:10.412Z,19.80
2022-09-03T01:03:06.952Z,19.87
2022-09-03T01:05:56.496Z,19.70
2022-09-03T01:08:44.048Z,19.78
2022-09-03T01:11:20.016Z,19.92
2022-09-03T01:13:52.617Z,19.78
2022-09-03T01:16:37.743Z,20.09
2022-09-03T01:19:12.283Z,19.76
2022-09-03T01:21:55.356Z,19.95
2022-09-03T01:24:32.871Z,19.88
2022-09-03T01:27:15.321Z,19.87
2022-09-03T01:29:55.647Z,19.58
2022-09-03T01:32:41.082Z,19.82
2022-09-03T01:35:42.611Z,19.80
2022-09-03T01:38:27.533Z,19.69
2022-09-03T01:41:28.674Z,20.08
2022-09-03T01:44:22.333Z,20.01
2022-09-03T01:46:56.540Z,20.18
2022-09-03T01:49:41.368Z,20.09
2022-09-03T01:52:29.617Z,20.11
2022-09-03T01:55:33.397Z,19.66
2022-09-03T01:58:12.945Z,19.55
2022-09-03T02:00:43.976Z,19.52
2022-09-03T02:03:12.689Z,19.90
2022-09-03T02:05:39.564Z,20.00
2022-09-03T02:08:09.007Z,19.95
2022-09-03T02:10:43.830Z,19.53
2022-09-03T02:13:38.716Z,19.32
2022-09-03T02:16:15.908Z,19.09
2022-09-03T02:18:46.964Z,19.40
2022-09-03T02:21:18.075Z,19.77
2022-09-03T02:23:44.849Z,19.79
2022-09-03T02:26:14.687Z,19.69
2022-09-03T02:28:41.790Z,19.94
2022-09-03T02:31:08.568Z,19.89
2022-09-03T02:33:40.918Z,19.70
2022-09-03T02:36:10.431Z,19.67
2022-09-03T02:38:37.434Z,19.87
2022-09-03T02:41:04.175Z,19.82
2022-09-03T02:43:42.131Z,19.48
2022-09-03T02:46:18.085Z,19.79
2022-09-03T02:48:44.741Z,19.65
2022-09-03T02:51:14.339Z,19.88
2022-09-03T02:53:42.533Z,19.09
2022-09-03T02:56:09.250Z,19.45
2022-09-03T02:58:35.928Z,19.90
2022-09-03T03:01:03.956Z,20.14
2022-09-03T03:03:30.757Z,20.19
2022-09-03T03:06:01.608Z,19.82
2022-09-03T03:08:29.141Z,20.00
2022-09-03T03:10:58.864Z,20.00
2022-09-03T03:13:27.292Z,20.15
2022-09-03T03:15:59.021Z,19.51
2022-09-03T03:18:25.901Z,19.64
2022-09-03T03:20:52.719Z,19.75
2022-09-03T03:23:19.571Z,19.34
2022-09-03T03:25:46.847Z,19.59
2022-09-03T03:28:16.426Z,19.77
2022-09-03T03:30:43.208Z,19.78
2022-09-03T03:33:10.432Z,19.09
2022-09-03T03:35:37.486Z,19.35
2022-09-03T03:38:05.137Z,19.55
2022-09-03T03:40:32.035Z,19.62
2022-09-03T03:42:59.027Z,19.53
2022-09-03T03:45:25.837Z,19.73
2022-09-03T03:47:52.936Z,19.48
2022-09-03T03:50:19.739Z,19.26
2022-09-03T03:52:46.391Z,19.01
2022-09-03T03:55:13.113Z,19.41
2022-09-03T03:57:42.762Z,19.17
2022-09-03T04:00:09.980Z,19.27
2022-09-03T04:02:39.192Z,19.37
2022-09-03T04:05:06.437Z,19.46
2022-09-03T04:07:34.497Z,19.60
2022-09-03T04:10:01.434Z,19.55
2022-09-03T04:12:28.126Z,19.62
2022-09-03T04:14:54.782Z,19.64
2022-09-03T04:17:25.148Z,19.62
2022-09-03T04:19:52.158Z,19.62
2022-09-03T04:22:19.723Z,19.68
2022-09-03T04:24:46.358Z,19.64
2022-09-03T04:27:13.100Z,19.74
2022-09-03T04:29:39.867Z,19.31
2022-09-03T04:32:24.993Z,19.01
2022-09-03T04:34:51.622Z,19.42
2022-09-03T04:37:19.945Z,19.06
2022-09-03T04:39:46.846Z,18.87
2022-09-03T04:42:13.537Z,19.26
2022-09-03T04:44:41.210Z,19.09
2022-09-03T04:47:08.057Z,18.78
2022-09-03T04:49:34.876Z,19.25
2022-09-03T04:52:02.682Z,18.80
2022-09-03T04:54:29.641Z,18.46
2022-09-03T04:56:56.779Z,18.80
2022-09-03T04:59:23.413Z,18.83
2022-09-03T05:01:50.168Z,19.17
2022-09-03T05:04:16.824Z,19.27
2022-09-03T05:06:43.545Z,19.51
2022-09-03T05:09:10.190Z,19.75
2022-09-03T05:11:37.103Z,19.70
2022-09-03T05:14:05.961Z,19.26
2022-09-03T05:16:33.137Z,19.44
2022-09-03T05:19:01.310Z,19.32
2022-09-03T05:21:29.382Z,18.79
2022-09-03T05:23:56.539Z,18.38
2022-09-03T05:26:25.751Z,18.43
2022-09-03T05:29:04.370Z,18.36
2022-09-03T05:31:32.287Z,18.49
2022-09-03T05:34:01.567Z,18.82
2022-09-03T05:36:31.978Z,19.22
2022-09-03T05:39:01.808Z,19.13
2022-09-03T05:41:29.804Z,19.05
2022-09-03T05:43:59.337Z,19.12
2022-09-03T05:46:34.347Z,19.14
2022-09-03T05:49:06.062Z,19.05
2022-09-03T05:51:34.114Z,18.73
2022-09-03T05:54:01.935Z,18.94
2022-09-03T05:56:30.644Z,18.54
2022-09-03T05:59:05.796Z,18.98
2022-09-03T06:01:34.906Z,18.86
2022-09-03T06:04:04.335Z,19.41
2022-09-03T06:06:33.581Z,19.53
2022-09-03T06:09:06.796Z,19.13
2022-09-03T06:11:35.506Z,19.53
2022-09-03T06:14:08.562Z,18.39
2022-09-03T06:16:41.186Z,18.93
2022-09-03T06:19:13.274Z,18.09
2022-09-03T06:21:43.002Z,18.46
2022-09-03T06:24:17.309Z,18.79
2022-09-03T06:26:45.078Z,19.10
2022-09-03T06:29:12.530Z,19.25
2022-09-03T06:31:39.916Z,19.72
2022-09-03T06:34:06.724Z,20.08
2022-09-03T06:36:33.721Z,19.64
2022-09-03T06:39:00.516Z,20.36
2022-09-03T06:41:31.825Z,19.86
2022-09-03T06:44:03.250Z,18.95
2022-09-03T06:46:35.281Z,18.96
2022-09-03T06:49:02.655Z,18.94
2022-09-03T06:51:31.241Z,19.40
2022-09-03T06:54:06.425Z,19.20
2022-09-03T06:56:39.576Z,19.34
2022-09-03T06:59:16.080Z,18.92
2022-09-03T07:01:52.956Z,19.00
2022-09-03T07:04:20.329Z,19.89
2022-09-03T07:06:47.714Z,19.90
2022-09-03T07:09:15.873Z,19.65
2022-09-03T07:11:47.990Z,19.58
2022-09-03T07:14:19.817Z,19.60
2022-09-03T07:16:47.985Z,20.18
2022-09-03T07:19:15.662Z,19.78
2022-09-03T07:21:48.406Z,20.25
2022-09-03T07:24:16.823Z,20.19
2022-09-03T07:26:48.821Z,20.01
2022-09-03T07:29:16.574Z,19.88
2022-09-03T07:31:44.265Z,20.46
2022-09-03T07:34:12.947Z,20.43
2022-09-03T07:36:48.657Z,20.28
2022-09-03T07:39:18.027Z,19.79
2022-09-03T07:41:46.231Z,19.92
2022-09-03T07:44:22.888Z,19.82
2022-09-03T07:46:51.435Z,19.68
2022-09-03T07:49:18.757Z,19.70
2022-09-03T07:51:46.645Z,20.29
2022-09-03T07:54:13.388Z,20.45
2022-09-03T07:56:41.188Z,20.06
2022-09-03T07:59:08.949Z,20.57
2022-09-03T08:01:36.933Z,20.72
2022-09-03T08:04:07.047Z,20.66
2022-09-03T08:06:40.315Z,20.38
2022-09-03T08:09:11.442Z,21.18
2022-09-03T08:11:40.316Z,20.96
2022-09-03T08:14:09.532Z,20.79
2022-09-03T08:16:39.696Z,20.76
2022-09-03T08:19:07.699Z,20.56
2022-09-03T08:21:35.189Z,20.65
2022-09-03T08:24:05.889Z,20.93
2022-09-03T08:26:37.835Z,20.87
2022-09-03T08:29:05.776Z,20.89
2022-09-03T08:31:34.470Z,21.04
2022-09-03T08:34:04.939Z,20.18
2022-09-03T08:36:34.041Z,20.80
2022-09-03T08:39:08.216Z,21.18
2022-09-03T08:41:53.414Z,21.07
2022-09-03T08:44:35.250Z,20.57
2022-09-03T08:47:20.830Z,20.07
2022-09-03T08:50:22.890Z,20.93
2022-09-03T08:53:02.067Z,20.72
2022-09-03T08:55:31.172Z,20.50
2022-09-03T08:58:06.406Z,21.28
2022-09-03T09:01:01.625Z,21.41
2022-09-03T09:04:09.767Z,21.49
2022-09-03T09:06:52.590Z,20.09
2022-09-03T09:09:19.190Z,21.16
2022-09-03T09:11:46.182Z,21.35
2022-09-03T09:14:39.400Z,21.35
2022-09-03T09:17:13.312Z,21.58
2022-09-03T09:19:47.367Z,22.03
2022-09-03T09:22:30.546Z,21.54
2022-09-03T09:25:02.253Z,22.23
2022-09-03T09:27:29.873Z,22.02
2022-09-03T09:30:01.919Z,21.79
2022-09-03T09:32:29.148Z,22.28
2022-09-03T09:34:55.813Z,22.05
2022-09-03T09:37:22.525Z,22.27
2022-09-03T09:39:57.863Z,22.05
2022-09-03T09:42:25.767Z,22.63
2022-09-03T09:44:52.823Z,22.38
2022-09-03T09:47:38.659Z,22.65
2022-09-03T09:50:25.097Z,22.60
2022-09-03T09:53:14.625Z,22.53
2022-09-03T09:55:52.801Z,22.07
2022-09-03T09:58:21.314Z,22.05
2022-09-03T10:01:00.571Z,22.32
2022-09-03T10:03:29.958Z,22.36
2022-09-03T10:06:28.941Z,22.14
2022-09-03T10:09:10.907Z,22.81
2022-09-03T10:11:41.173Z,22.27
2022-09-03T10:14:25.316Z,22.84
2022-09-03T10:17:02.540Z,22.01
2022-09-03T10:19:40.553Z,22.75
2022-09-03T10:22:17.944Z,22.14
2022-09-03T10:24:58.061Z,22.78
2022-09-03T10:27:25.966Z,22.02
2022-09-03T10:29:53.463Z,21.97
2022-09-03T10:33:01.150Z,22.23
2022-09-03T10:35:45.842Z,21.75
2022-09-03T10:38:18.774Z,21.96
2022-09-03T10:41:14.824Z,22.36
2022-09-03T10:43:58.295Z,22.73
2022-09-03T10:46:35.907Z,22.86
2022-09-03T10:49:40.666Z,22.86
2022-09-03T10:52:20.788Z,22.29
2022-09-03T10:55:24.530Z,21.96
2022-09-03T10:57:56.791Z,21.93
2022-09-03T11:00:24.342Z,22.17
2022-09-03T11:05:42.706Z,22.31
2022-09-03T11:08:22.051Z,22.48
2022-09-03T11:10:54.922Z,22.71
2022-09-03T11:13:35.480Z,22.46
2022-09-03T11:16:06.735Z,22.76
2022-09-03T11:18:41.217Z,22.60
2022-09-03T11:21:13.179Z,22.26
2022-09-03T11:23:47.662Z,22.82
2022-09-03T11:26:18.681Z,22.90
2022-09-03T11:28:59.775Z,22.85
2022-09-03T11:31:59.240Z,22.94
2022-09-03T11:34:33.969Z,23.39
2022-09-03T11:37:15.723Z,22.77
2022-09-03T11:39:42.495Z,23.18
2022-09-03T11:42:28.362Z,23.51
2022-09-03T11:45:01.028Z,23.34
2022-09-03T11:47:43.804Z,22.88
2022-09-03T11:50:26.159Z,23.04
2022-09-03T11:53:06.777Z,22.81
2022-09-03T11:55:46.438Z,22.96
2022-09-03T11:58:25.508Z,22.28
2022-09-03T12:00:54.213Z,23.13
2022-09-03T12:03:28.688Z,23.16
2022-09-03T12:06:13.843Z,22.80
2022-09-03T12:09:24.551Z,23.30
2022-09-03T12:12:07.055Z,23.61
2022-09-03T12:14:39.519Z,23.24
2022-09-03T12:17:21.271Z,23.29
2022-09-03T12:19:55.908Z,22.82
2022-09-03T12:22:28.806Z,23.76
2022-09-03T12:24:56.301Z,23.47
2022-09-03T12:27:26.230Z,23.49
2022-09-03T12:30:00.561Z,23.32
2022-09-03T12:32:39.379Z,22.88
2022-09-03T12:38:09.900Z,23.89
2022-09-03T12:43:38.205Z,23.22
2022-09-03T12:46:13.729Z,23.18
2022-09-03T12:49:30.040Z,23.64
2022-09-03T12:51:53.363Z,24.52
2022-09-03T12:54:23.138Z,24.21
2022-09-03T12:56:56.651Z,24.25
2022-09-03T12:59:25.062Z,23.87
2022-09-03T13:01:54.984Z,23.91
2022-09-03T13:04:28.150Z,23.51
2022-09-03T13:07:06.004Z,23.63
2022-09-03T13:09:37.909Z,23.56
2022-09-03T13:12:06.007Z,23.71
2022-09-03T13:14:44.200Z,23.29
2022-09-03T13:17:38.738Z,23.95
2022-09-03T13:20:17.709Z,23.83
2022-09-03T13:23:05.234Z,23.93
2022-09-03T13:25:41.950Z,23.63
2022-09-03T13:28:27.505Z,24.06
2022-09-03T13:31:02.309Z,24.26
2022-09-03T13:33:42.182Z,24.60
2022-09-03T13:36:28.622Z,24.22
2022-09-03T13:39:06.113Z,24.49
2022-09-03T13:42:00.201Z,23.97
2022-09-03T13:44:41.132Z,24.39
2022-09-03T13:47:28.742Z,24.18
2022-09-03T13:50:22.730Z,24.27
2022-09-03T13:53:01.219Z,24.88
2022-09-03T13:55:43.162Z,24.93
2022-09-03T13:58:23.068Z,25.18
2022-09-03T14:01:06.194Z,24.60
2022-09-03T14:03:56.382Z,24.51
2022-09-03T14:06:36.842Z,24.57
2022-09-03T14:09:18.566Z,24.71
2022-09-03T14:11:51.228Z,24.83
2022-09-03T14:14:31.572Z,24.77
2022-09-03T14:17:10.146Z,24.43
2022-09-03T14:19:48.838Z,24.71
2022-09-03T14:22:25.690Z,25.29
2022-09-03T14:25:26.437Z,24.44
2022-09-03T14:27:55.371Z,24.34
2022-09-03T14:30:55.586Z,24.51
2022-09-03T14:33:25.643Z,24.88
2022-09-03T14:35:58.985Z,24.67
2022-09-03T14:38:56.025Z,24.68
2022-09-03T14:41:28.247Z,24.71
2022-09-03T14:43:57.895Z,24.86
2022-09-03T14:46:45.939Z,24.32
2022-09-03T14:49:31.163Z,24.17
2022-09-03T14:52:17.244Z,24.42
2022-09-03T14:55:12.810Z,24.22
2022-09-03T14:58:20.487Z,23.66
2022-09-03T15:01:11.427Z,23.76
2022-09-03T15:03:44.084Z,24.31
2022-09-03T15:06:37.917Z,24.08
2022-09-03T15:09:28.468Z,24.27
2022-09-03T15:12:03.614Z,23.52
2022-09-03T15:14:56.036Z,23.91
2022-09-03T15:17:28.402Z,23.91
2022-09-03T15:20:32.502Z,24.04
2022-09-03T15:23:18.485Z,24.32
2022-09-03T15:25:50.713Z,24.26
2022-09-03T15:28:34.577Z,24.17
2022-09-03T15:31:20.199Z,24.03
2022-09-03T15:33:56.852Z,23.78
2022-09-03T15:36:35.002Z,23.61
2022-09-03T15:39:06.984Z,23.43
2022-09-03T15:42:02.805Z,23.50
2022-09-03T15:44:37.967Z,23.64
2022-09-03T15:47:14.428Z,23.80
2022-09-03T15:50:07.542Z,23.58
2022-09-03T15:52:54.197Z,23.26
2022-09-03T15:55:42.432Z,23.56
2022-09-03T15:58:35.377Z,23.94
2022-09-03T16:01:27.076Z,23.64
2022-09-03T16:03:56.895Z,23.38
2022-09-03T16:06:39.220Z,23.23
2022-09-03T16:09:10.770Z,22.98
2022-09-03T16:11:51.745Z,23.61
2022-09-03T16:14:25.580Z,23.28
2022-09-03T16:17:02.080Z,23.32
2022-09-03T16:19:38.082Z,23.56
2022-09-03T16:22:14.045Z,23.24
2022-09-03T16:25:07.298Z,23.03
2022-09-03T16:27:51.496Z,23.07
2022-09-03T16:30:37.181Z,23.49
2022-09-03T16:33:27.917Z,22.93
2022-09-03T16:36:12.469Z,22.75
2022-09-03T16:39:10.750Z,23.15
2022-09-03T16:41:46.439Z,23.66
2022-09-03T16:44:25.185Z,23.42
2022-09-03T16:47:16.640Z,23.22
2022-09-03T16:50:11.121Z,23.32
2022-09-03T16:53:11.186Z,23.58
2022-09-03T16:56:04.452Z,23.44
2022-09-03T16:58:51.316Z,23.76
2022-09-03T17:01:36.297Z,23.83
2022-09-03T17:04:21.516Z,23.73
2022-09-03T17:07:23.815Z,23.57
2022-09-03T17:09:59.575Z,23.61
2022-09-03T17:13:03.997Z,23.79
2022-09-03T17:15:44.864Z,23.97
2022-09-03T17:18:40.621Z,23.72
2022-09-03T17:21:10.283Z,23.63
2022-09-03T17:24:06.313Z,23.65
2022-09-03T17:26:45.764Z,23.60
2022-09-03T17:29:30.921Z,23.64
2022-09-03T17:32:07.581Z,23.58
2022-09-03T17:35:06.413Z,23.04
2022-09-03T17:37:52.838Z,23.13
2022-09-03T17:40:28.099Z,23.12
2022-09-03T17:43:14.610Z,22.99
2022-09-03T17:45:51.665Z,23.27
2022-09-03T17:48:24.266Z,22.80
2022-09-03T17:50:53.537Z,22.84
2022-09-03T17:53:32.383Z,22.68
2022-09-03T17:56:06.481Z,22.52
2022-09-03T17:58:43.862Z,22.97
2022-09-03T18:01:10.447Z,23.09
2022-09-03T18:03:46.078Z,23.23
2022-09-03T18:06:40.705Z,22.85
2022-09-03T18:09:24.016Z,22.68
2022-09-03T18:11:57.102Z,22.47
2022-09-03T18:14:34.235Z,22.49
2022-09-03T18:17:05.612Z,22.98
2022-09-03T18:20:09.605Z,22.86
2022-09-03T18:23:20.234Z,22.69
2022-09-03T18:26:20.688Z,22.59
2022-09-03T18:29:10.669Z,22.29
2022-09-03T18:31:55.934Z,22.33
2022-09-03T18:34:49.673Z,22.68
2022-09-03T18:37:39.609Z,22.70
2022-09-03T18:40:27.439Z,22.80
2022-09-03T18:43:33.640Z,22.82
2022-09-03T18:49:54.426Z,22.62
2022-09-03T18:53:01.072Z,22.79
2022-09-03T18:56:08.201Z,22.81
2022-09-03T18:59:16.670Z,22.71
2022-09-03T19:02:02.826Z,22.73
2022-09-03T19:05:33.174Z,22.66
2022-09-03T19:08:41.455Z,22.56
2022-09-03T19:11:43.149Z,22.21
2022-09-03T19:14:53.051Z,22.13
2022-09-03T19:18:00.798Z,22.04
2022-09-03T19:20:51.107Z,22.06
2022-09-03T19:23:36.278Z,22.08
2022-09-03T19:26:37.614Z,22.13
2022-09-03T19:29:30.297Z,22.17
2022-09-03T19:32:26.811Z,22.00
2022-09-03T19:35:36.687Z,21.86
2022-09-03T19:38:28.096Z,21.69
2022-09-03T19:41:21.421Z,21.74
2022-09-03T19:44:33.963Z,21.30
2022-09-03T19:47:22.635Z,21.27
2022-09-03T19:50:22.967Z,21.23
2022-09-03T19:53:13.170Z,21.36
2022-09-03T19:56:07.571Z,21.31
2022-09-03T19:58:57.316Z,21.38
2022-09-03T20:01:48.251Z,21.57
2022-09-03T20:04:35.003Z,21.66
2022-09-03T20:07:23.639Z,21.58
2022-09-03T20:10:10.639Z,21.72
2022-09-03T20:12:43.414Z,21.70
2022-09-03T20:15:10.554Z,21.81
2022-09-03T20:17:52.697Z,21.30
2022-09-03T20:20:25.260Z,21.47
2022-09-03T20:22:59.652Z,21.62
2022-09-03T20:26:00.146Z,21.35
2022-09-03T20:28:45.841Z,21.34
2022-09-03T20:31:44.024Z,21.21
2022-09-03T20:34:16.529Z,20.70
2022-09-03T20:37:04.668Z,20.33
2022-09-03T20:40:12.355Z,20.65
2022-09-03T20:42:55.273Z,20.84
2022-09-03T20:45:46.431Z,20.93
2022-09-03T20:48:36.801Z,20.74
2022-09-03T20:51:12.005Z,21.02
2022-09-03T20:54:15.372Z,20.82
2022-09-03T20:57:02.907Z,20.55
2022-09-03T21:00:03.492Z,20.23
2022-09-03T21:02:58.297Z,20.35
2022-09-03T21:05:30.445Z,20.45
2022-09-03T21:08:21.290Z,20.56
2022-09-03T21:11:09.774Z,20.54
2022-09-03T21:13:52.044Z,20.52
2022-09-03T21:16:24.557Z,20.45
2022-09-03T21:19:06.903Z,20.57
2022-09-03T21:21:59.605Z,20.75
2022-09-03T21:24:35.018Z,20.78
2022-09-03T21:27:15.094Z,20.73
2022-09-03T21:29:47.836Z,20.93
2022-09-03T21:32:33.649Z,20.57
2022-09-03T21:35:15.191Z,20.66
2022-09-03T21:37:58.150Z,20.49
2022-09-03T21:40:31.401Z,20.10
2022-09-03T21:43:08.478Z,19.93
2022-09-03T21:45:52.051Z,19.88
2022-09-03T21:48:25.522Z,20.02
2022-09-03T21:50:58.824Z,20.00
2022-09-03T21:53:42.471Z,19.87
2022-09-03T21:56:34.462Z,20.04
2022-09-03T21:59:26.350Z,20.28
2022-09-03T22:02:03.434Z,20.37
2022-09-03T22:04:30.838Z,20.57
2022-09-03T22:07:00.322Z,20.37
2022-09-03T22:09:40.966Z,20.54
2022-09-03T22:12:20.329Z,20.46
2022-09-03T22:14:51.811Z,20.34
2022-09-03T22:17:47.051Z,20.48
2022-09-03T22:20:15.597Z,20.55
2022-09-03T22:22:56.697Z,20.02
2022-09-03T22:25:37.139Z,19.48
2022-09-03T22:28:06.593Z,19.55
2022-09-03T22:31:24.736Z,19.73
2022-09-03T22:33:56.727Z,20.07
2022-09-03T22:36:40.238Z,19.94
2022-09-03T22:39:18.079Z,19.55
2022-09-03T22:42:18.019Z,20.01
2022-09-03T22:44:59.532Z,20.08
2022-09-03T22:47:50.866Z,20.31
2022-09-03T22:50:36.189Z,20.27
2022-09-03T22:53:11.915Z,20.37
2022-09-03T22:55:45.798Z,20.02
2022-09-03T22:58:19.706Z,20.04
2022-09-03T23:00:57.600Z,20.10
2022-09-03T23:03:39.170Z,20.16
2022-09-03T23:06:16.621Z,20.25
2022-09-03T23:08:56.638Z,20.25
2022-09-03T23:11:31.550Z,20.00
2022-09-03T23:14:08.266Z,19.71
2022-09-03T23:16:46.611Z,19.08
2022-09-03T23:22:07.205Z,19.50
2022-09-03T23:24:36.923Z,19.61
2022-09-03T23:27:10.075Z,19.74
2022-09-03T23:29:51.232Z,19.59
2022-09-03T23:32:18.227Z,19.81
2022-09-03T23:34:44.949Z,19.84
2022-09-03T23:37:33.477Z,19.83
2022-09-03T23:40:28.695Z,19.86
2022-09-03T23:43:17.115Z,19.96
2022-09-03T23:46:15.458Z,19.85
2022-09-03T23:48:54.343Z,19.79
2022-09-03T23:51:29.855Z,19.79
2022-09-03T23:54:16.724Z,19.70
2022-09-03T23:57:08.370Z,19.72
